Data for 11/24/2015

Time Sea-Level Adjusted Pressure Absolute Pressure Temperature Relative Humidity Dew Point   
(mb) (inHg) (mb) (inHg) (C) (F) (%) (C) (F)
00:05 1010 29.83 840 24.81 2.5 36.5 42 -9.3 15.3
00:10 1010 29.83 840 24.81 2.3 36.2 40 -9.9 14.2
00:15 1010 29.83 840 24.81 2.5 36.4 41 -9.6 14.6
00:20 1010 29.83 839 24.78 2.6 36.6 39 -10 14
00:25 1010 29.83 840 24.81 2.4 36.4 44 -8.5 16.6
00:30 1010 29.83 840 24.81 2.1 35.9 46 -8.3 17.1
00:35 1010 29.83 840 24.81 2.5 36.5 37 -10.8 12.6
00:40 1010 29.83 840 24.81 3.6 38.4 36 -10.2 13.6
00:45 1010 29.83 840 24.81 3.4 38.1 36 -10.3 13.4
00:50 1010 29.83 840 24.81 3.1 37.5 37 -10.3 13.4
00:55 1010 29.83 840 24.81 2.9 37.3 36 -10.7 12.8
01:00 1010 29.83 840 24.81 3.2 37.8 36 -10.6 13
01:05 1010 29.83 840 24.81 2.9 37.3 37 -10.4 13.3
01:10 1010 29.83 840 24.81 2.8 37 38 -10.3 13.5
01:15 1010 29.83 839 24.78 2.3 36.2 39 -10.1 13.8
01:20 1010 29.83 839 24.78 2.1 35.7 40 -10.1 13.8
01:25 1010 29.83 839 24.78 2 35.5 40 -10.2 13.6
01:30 1010 29.83 839 24.78 1.9 35.4 40 -10.2 13.6
01:35 1010 29.83 839 24.78 1.8 35.2 41 -10.2 13.6
01:40 1010 29.83 839 24.78 1.7 35 41 -10.3 13.5
01:45 1010 29.83 839 24.78 1.6 34.9 41 -10.3 13.4
01:50 1010 29.83 839 24.78 1.9 35.4 39 -10.6 12.9
01:55 1010 29.83 839 24.78 1.9 35.5 39 -10.7 12.7
02:00 1010 29.83 839 24.78 2 35.5 39 -10.7 12.7
02:05 1010 29.83 839 24.78 2 35.6 38 -10.8 12.6
02:10 1010 29.83 839 24.78 2 35.6 38 -10.8 12.6
02:15 1010 29.83 839 24.78 1.9 35.5 39 -10.7 12.7
02:20 1010 29.83 839 24.78 1.8 35.2 39 -10.6 12.9
02:25 1010 29.83 839 24.78 1.6 34.9 41 -10.4 13.3
02:30 1010 29.83 839 24.78 1.1 34 42 -10.3 13.4
02:35 1010 29.83 839 24.78 1 33.8 42 -10.4 13.3
02:40 1010 29.83 839 24.78 1.1 33.9 42 -10.5 13.1
02:45 1010 29.83 839 24.78 1.2 34.1 42 -10.4 13.2
02:50 1009 29.8 839 24.78 0.9 33.7 43 -10.2 13.6
02:55 1009 29.8 839 24.78 0.7 33.2 43 -10.5 13.2
03:00 1009 29.8 839 24.78 0.8 33.4 44 -10.2 13.6
03:05 1009 29.8 839 24.78 0.9 33.7 42 -10.6 12.9
03:10 1009 29.8 839 24.78 1.1 33.9 42 -10.6 13
03:15 1009 29.8 839 24.78 1.2 34.1 41 -10.7 12.7
03:20 1009 29.8 839 24.78 1.2 34.2 41 -10.6 13
03:25 1010 29.83 839 24.78 1.1 33.9 42 -10.6 13
03:30 1010 29.83 839 24.78 1.1 33.9 42 -10.6 12.9
03:35 1010 29.83 839 24.78 1.1 34 41 -10.7 12.7
03:40 1010 29.83 839 24.78 1 33.8 43 -10.2 13.7
03:45 1010 29.83 839 24.78 0.5 32.9 44 -10.3 13.5
03:50 1010 29.83 839 24.78 0.3 32.5 45 -10.3 13.5
03:55 1010 29.83 839 24.78 0.1 32.2 46 -10.1 13.7
04:00 1010 29.83 839 24.78 -0.2 31.6 48 -10 13.9
04:05 1010 29.83 839 24.78 -0.1 31.7 48 -9.8 14.3
04:10 1010 29.83 839 24.78 -0.1 31.9 47 -10.1 13.7
04:15 1010 29.83 839 24.78 0.2 32.4 46 -10.1 13.9
04:20 1010 29.83 839 24.78 0.3 32.5 45 -10.4 13.4
04:25 1010 29.83 839 24.78 0.6 33.1 42 -10.9 12.4
04:30 1010 29.83 839 24.78 1.4 34.4 39 -11 12.2
04:35 1010 29.83 839 24.78 2.1 35.8 38 -10.9 12.5
04:40 1010 29.83 839 24.78 1.9 35.5 40 -10.4 13.3
04:45 1010 29.83 839 24.78 1.1 33.9 44 -9.8 14.3
04:50 1010 29.83 839 24.78 0.4 32.7 45 -10.1 13.8
04:55 1010 29.83 839 24.78 0.6 33 44 -10.3 13.5
05:00 1010 29.83 839 24.78 0.8 33.4 45 -9.9 14.1
05:05 1010 29.83 839 24.78 0.3 32.5 47 -9.7 14.5
05:10 1010 29.83 839 24.78 0 32 48 -9.8 14.3
05:15 1010 29.83 839 24.78 0 32.1 48 -9.8 14.4
05:20 1010 29.83 839 24.78 0.1 32.2 46 -10.2 13.7
05:25 1010 29.83 839 24.78 0.4 32.8 46 -9.8 14.3
05:30 1010 29.83 839 24.78 0.1 32.3 49 -9.4 15.1
05:35 1010 29.83 839 24.78 -0.2 31.6 49 -9.6 14.8
05:40 1010 29.83 839 24.78 -0.1 31.8 48 -9.9 14.1
05:45 1010 29.83 839 24.78 0.4 32.6 45 -10.2 13.7
05:50 1010 29.83 839 24.78 0.9 33.6 44 -10.2 13.7
05:55 1010 29.83 839 24.78 1.2 34.1 43 -10.1 13.8
06:00 1010 29.83 839 24.78 1.4 34.5 43 -10 14.1
06:05 1010 29.83 839 24.78 1.4 34.5 43 -9.9 14.2
06:10 1010 29.83 839 24.78 1.1 34 46 -9.1 15.5
06:15 1010 29.83 839 24.78 0.7 33.2 46 -9.7 14.5
06:20 1010 29.83 839 24.78 1 33.7 46 -9.5 15
06:25 1010 29.83 839 24.78 0.8 33.4 44 -10.1 13.8
06:30 1010 29.83 839 24.78 1.4 34.6 44 -9.5 15
06:35 1009 29.8 839 24.78 1.1 34 45 -9.5 14.9
06:40 1009 29.8 839 24.78 0.7 33.3 46 -9.6 14.7
06:45 1009 29.8 839 24.78 0.6 33.1 46 -9.8 14.4
06:50 1009 29.8 838 24.75 0.7 33.3 45 -9.8 14.4
06:55 1009 29.8 838 24.75 0.9 33.6 44 -9.9 14.1
07:00 1009 29.8 838 24.75 1.2 34.1 45 -9.6 14.7
07:05 1009 29.8 838 24.75 1.1 34 45 -9.6 14.6
07:10 1009 29.8 838 24.75 1.2 34.2 45 -9.5 14.8
07:15 1009 29.8 838 24.75 1.3 34.3 44 -9.6 14.8
07:20 1009 29.8 838 24.75 1.5 34.7 43 -9.7 14.6
07:25 1009 29.8 838 24.75 1.7 35 43 -9.6 14.7
07:30 1009 29.8 838 24.75 1.7 35.1 43 -9.6 14.7
07:35 1009 29.8 838 24.75 1.8 35.2 43 -9.5 14.9
07:40 1009 29.8 838 24.75 1.8 35.3 42 -9.7 14.6
07:45 1009 29.8 838 24.75 2 35.6 42 -9.5 14.8
07:50 1009 29.8 838 24.75 2 35.6 43 -9.4 15
07:55 1009 29.8 838 24.75 1.9 35.5 43 -9.4 15.1
08:00 1009 29.8 838 24.75 1.9 35.5 43 -9.3 15.2
08:05 1009 29.8 838 24.75 2 35.6 43 -9.3 15.3
08:10 1009 29.8 838 24.75 2.2 35.9 42 -9.4 15
08:15 1009 29.8 838 24.75 2.4 36.4 42 -9.4 15.2
08:20 1009 29.8 838 24.75 2.4 36.4 42 -9.3 15.3
08:25 1009 29.8 838 24.75 2.3 36.2 42 -9.3 15.2
08:30 1009 29.8 838 24.75 2.3 36.1 42 -9.3 15.2
08:35 1009 29.8 838 24.75 2.4 36.4 41 -9.4 15.1
08:40 1009 29.8 838 24.75 2.7 36.8 40 -9.5 14.9
08:45 1009 29.8 838 24.75 2.9 37.2 41 -9.1 15.6
08:50 1009 29.8 838 24.75 2.8 37 41 -9.1 15.6
08:55 1009 29.8 838 24.75 2.4 36.3 44 -8.6 16.5
09:00 1009 29.8 838 24.75 1.9 35.5 48 -7.9 17.7
09:05 1009 29.8 838 24.75 1.6 34.9 48 -8.3 17
09:10 1009 29.8 838 24.75 1.1 33.9 50 -8.3 17.1
09:15 1009 29.8 838 24.75 0.8 33.4 49 -8.7 16.3
09:20 1009 29.8 838 24.75 1.4 34.6 46 -8.9 16
09:25 1009 29.8 838 24.75 1.8 35.3 46 -8.7 16.3
09:30 1009 29.8 838 24.75 1.7 35.1 46 -8.6 16.5
09:35 1009 29.8 838 24.75 1.6 34.8 47 -8.5 16.7
09:40 1009 29.8 838 24.75 1.7 35 46 -8.6 16.5
09:45 1009 29.8 838 24.75 2.1 35.8 44 -9 15.8
09:50 1009 29.8 838 24.75 2.8 37 42 -8.8 16.1
09:55 1009 29.8 838 24.75 2.8 37 42 -8.8 16.2
10:00 1009 29.8 838 24.75 2.7 36.9 43 -8.7 16.3
10:05 1009 29.8 838 24.75 2.7 36.8 43 -8.7 16.3
10:10 1009 29.8 838 24.75 2.7 36.8 43 -8.8 16.2
10:15 1009 29.8 838 24.75 2.9 37.1 43 -8.6 16.5
10:20 1009 29.8 838 24.75 2.9 37.2 42 -8.8 16.2
10:25 1009 29.8 838 24.75 3.1 37.5 42 -8.7 16.3
10:30 1009 29.8 838 24.75 3.3 37.9 41 -8.7 16.3
10:35 1009 29.8 838 24.75 3.4 38.1 41 -8.7 16.3
10:40 1009 29.8 838 24.75 3.4 38.1 43 -8.1 17.5
10:45 1009 29.8 838 24.75 3.2 37.7 43 -8.4 16.9
10:50 1009 29.8 838 24.75 3.2 37.8 43 -8.2 17.3
10:55 1009 29.8 838 24.75 3.4 38.2 45 -7.4 18.7
11:00 1009 29.8 838 24.75 3.5 38.3 47 -6.9 19.7
11:05 1009 29.8 838 24.75 3.4 38.1 49 -6.3 20.6
11:10 1009 29.8 838 24.75 3.2 37.7 51 -6 21.2
11:15 1009 29.8 838 24.75 2.9 37.2 51 -6.2 20.9
11:20 1009 29.8 838 24.75 2.7 36.8 53 -6 21.2
11:25 1009 29.8 838 24.75 2.7 36.8 53 -6 21.2
11:30 1009 29.8 838 24.75 2.9 37.2 46 -7.6 18.4
11:35 1009 29.8 838 24.75 3.3 37.9 48 -6.7 19.9
11:40 1009 29.8 838 24.75 3.4 38.1 50 -6.1 21
11:45 1009 29.8 838 24.75 3.3 38 47 -6.8 19.7
11:50 1009 29.8 838 24.75 3.5 38.3 46 -6.9 19.5
11:55 1009 29.8 838 24.75 3.7 38.7 50 -5.9 21.4
12:00 1009 29.8 838 24.75 3.7 38.7 49 -6.1 21
12:05 1009 29.8 838 24.75 3.8 38.9 49 -5.9 21.3
12:10 1009 29.8 838 24.75 4 39.2 49 -5.6 21.9
12:15 1009 29.8 838 24.75 4.2 39.5 47 -6.3 20.7
12:20 1009 29.8 838 24.75 4.4 39.9 45 -6.4 20.4
12:25 1009 29.8 838 24.75 4.5 40.2 47 -5.8 21.6
12:30 1009 29.8 838 24.75 4.5 40.2 47 -5.8 21.6
12:35 1008 29.77 838 24.75 4.6 40.3 48 -5.4 22.2
12:40 1008 29.77 838 24.75 4.4 39.8 46 -6.3 20.7
12:45 1008 29.77 838 24.75 4.3 39.8 43 -7.1 19.2
12:50 1008 29.77 838 24.75 4.4 40 44 -6.9 19.7
12:55 1008 29.77 838 24.75 4.6 40.3 42 -7.2 19
13:00 1008 29.77 837 24.72 4.7 40.5 43 -6.9 19.6
13:05 1008 29.77 837 24.72 5 41.1 42 -6.9 19.6
13:10 1008 29.77 838 24.75 5.1 41.3 42 -6.8 19.8
13:15 1008 29.77 838 24.75 5.1 41.2 44 -6.2 20.8
13:20 1008 29.77 838 24.75 5.1 41.2 44 -6.1 21
13:25 1008 29.77 838 24.75 5 41 45 -5.9 21.4
13:30 1009 29.8 838 24.75 4.8 40.6 46 -5.8 21.6
13:35 1009 29.8 838 24.75 4.7 40.5 47 -5.8 21.6
13:40 1009 29.8 838 24.75 4.7 40.5 45 -6.2 20.8
13:45 1009 29.8 838 24.75 4.7 40.4 45 -6.4 20.5
13:50 1009 29.8 838 24.75 4.3 39.7 48 -5.7 21.7
13:55 1009 29.8 838 24.75 4 39.1 49 -5.9 21.3
14:00 1009 29.8 838 24.75 4 39.2 44 -7.1 19.2
14:05 1008 29.77 838 24.75 4 39.3 45 -6.9 19.5
14:10 1009 29.8 838 24.75 4.3 39.8 42 -7.4 18.6
14:15 1009 29.8 838 24.75 4 39.2 43 -7.6 18.3
14:20 1009 29.8 838 24.75 3.9 39.1 44 -7.3 18.9
14:25 1009 29.8 838 24.75 3.9 39 44 -7.4 18.7
14:30 1009 29.8 838 24.75 3.9 39.1 44 -7.3 18.8
14:35 1009 29.8 838 24.75 4.1 39.3 42 -7.6 18.3
14:40 1009 29.8 838 24.75 4.3 39.7 40 -8 17.6
14:45 1009 29.8 838 24.75 4.6 40.3 39 -8.4 16.9
14:50 1008 29.77 838 24.75 4.6 40.4 40 -7.9 17.8
14:55 1009 29.8 838 24.75 4.7 40.5 39 -7.9 17.7
15:00 1009 29.8 838 24.75 4.8 40.7 38 -8.2 17.3
15:05 1009 29.8 838 24.75 4.8 40.7 39 -8 17.7
15:10 1009 29.8 838 24.75 4.7 40.5 41 -7.4 18.6
15:15 1009 29.8 838 24.75 4.5 40.1 41 -7.6 18.3
15:20 1009 29.8 838 24.75 4.5 40 41 -7.8 18
15:25 1009 29.8 838 24.75 4.3 39.8 42 -7.5 18.5
15:30 1009 29.8 838 24.75 4.4 40 41 -7.6 18.3
15:35 1009 29.8 838 24.75 4.5 40.1 41 -7.7 18.1
15:40 1009 29.8 838 24.75 4.3 39.8 43 -7.3 18.9
15:45 1009 29.8 838 24.75 4 39.3 44 -7 19.4
15:50 1009 29.8 838 24.75 3.7 38.7 46 -6.9 19.6
15:55 1009 29.8 838 24.75 3.3 37.9 48 -6.7 19.9
16:00 1009 29.8 838 24.75 3 37.5 49 -6.7 19.9
16:05 1009 29.8 838 24.75 3 37.5 50 -6.3 20.7
16:10 1009 29.8 838 24.75 3.2 37.7 52 -5.8 21.6
16:15 1009 29.8 838 24.75 3 37.4 55 -5.1 22.8
16:20 1009 29.8 838 24.75 2.7 36.8 58 -4.7 23.5
16:25 1009 29.8 838 24.75 2.5 36.4 61 -4.3 24.3
16:30 1009 29.8 838 24.75 2.2 36 65 -3.7 25.3
16:35 1009 29.8 838 24.75 1.7 35 69 -3.3 26
16:40 1009 29.8 838 24.75 1.4 34.5 71 -3.2 26.2
16:45 1009 29.8 838 24.75 1.3 34.3 73 -3 26.5
16:50 1009 29.8 838 24.75 1.1 34 75 -2.9 26.8
16:55 1009 29.8 838 24.75 0.9 33.7 77 -2.6 27.3
17:00 1009 29.8 839 24.78 0.7 33.3 78 -2.7 27.2
17:05 1009 29.8 839 24.78 0.7 33.2 79 -2.6 27.3
17:10 1010 29.83 839 24.78 0.4 32.8 83 -2.2 28.1
17:15 1010 29.83 839 24.78 0.2 32.3 83 -2.4 27.6
17:20 1010 29.83 839 24.78 -0.2 31.7 83 -2.8 27
17:25 1010 29.83 839 24.78 -0.5 31.1 82 -3.2 26.3
17:30 1010 29.83 839 24.78 -0.6 30.9 84 -3.1 26.5
17:35 1010 29.83 839 24.78 -0.7 30.7 82 -3.4 25.8
17:40 1010 29.83 839 24.78 -0.7 30.7 81 -3.5 25.6
17:45 1010 29.83 840 24.81 -0.8 30.5 83 -3.4 25.9
17:50 1010 29.83 840 24.81 -1.1 30 84 -3.4 25.8
17:55 1011 29.85 840 24.81 -1.1 30 85 -3.4 25.9
18:00 1011 29.85 840 24.81 -1.3 29.6 86 -3.4 25.9
18:05 1011 29.85 840 24.81 -1.6 29.1 87 -3.5 25.8
18:10 1011 29.85 840 24.81 -1.7 28.9 87 -3.6 25.5
18:15 1011 29.85 840 24.81 -2 28.5 88 -3.7 25.3
18:20 1011 29.85 840 24.81 -2.1 28.2 88 -3.8 25.1
18:25 1011 29.85 840 24.81 -2.3 27.9 88 -4 24.8
18:30 1011 29.85 841 24.83 -2.5 27.5 88 -4.2 24.4
18:35 1011 29.85 841 24.83 -2.8 27 89 -4.3 24.2
18:40 1012 29.88 841 24.83 -2.9 26.8 89 -4.4 24.1
18:45 1012 29.88 841 24.83 -2.9 26.7 90 -4.4 24.1
18:50 1012 29.88 841 24.83 -3.2 26.3 89 -4.8 23.4
18:55 1012 29.88 841 24.83 -3.5 25.8 90 -4.9 23.1
19:00 1012 29.88 841 24.83 -3.5 25.7 90 -4.8 23.3
19:05 1012 29.88 841 24.83 -3.5 25.7 90 -4.9 23.2
19:10 1012 29.88 841 24.83 -3.7 25.3 90 -5.2 22.6
19:15 1012 29.88 841 24.83 -3.9 25 89 -5.4 22.2
19:20 1012 29.88 841 24.83 -4 24.8 90 -5.5 22.1
19:25 1012 29.88 841 24.83 -4.1 24.6 88 -5.7 21.7
19:30 1012 29.88 841 24.83 -4.2 24.4 88 -5.9 21.5
19:35 1012 29.88 841 24.83 -4.3 24.3 88 -5.9 21.3
19:40 1012 29.88 841 24.83 -4.3 24.2 89 -5.9 21.4
19:45 1012 29.88 842 24.86 -4.4 24.1 88 -6.1 21
19:50 1012 29.88 842 24.86 -4.5 23.9 88 -6.1 21
19:55 1012 29.88 842 24.86 -4.6 23.7 87 -6.5 20.3
20:00 1012 29.88 842 24.86 -4.9 23.2 87 -6.7 20
20:05 1012 29.88 842 24.86 -5 23 88 -6.7 19.9
20:10 1012 29.88 842 24.86 -5 23 88 -6.7 19.9
20:15 1013 29.91 842 24.86 -5.1 22.9 88 -6.7 19.9
20:20 1013 29.91 842 24.86 -5.2 22.7 88 -6.9 19.7
20:25 1013 29.91 842 24.86 -5.2 22.7 88 -6.9 19.5
20:30 1013 29.91 842 24.86 -5.3 22.5 88 -7 19.5
20:35 1013 29.91 842 24.86 -5.4 22.3 88 -7.1 19.2
20:40 1013 29.91 842 24.86 -5.5 22.1 88 -7.3 18.9
20:45 1013 29.91 842 24.86 -5.6 21.9 87 -7.4 18.7
20:50 1013 29.91 842 24.86 -5.6 21.9 88 -7.4 18.8
20:55 1013 29.91 842 24.86 -5.6 22 88 -7.2 19
21:00 1013 29.91 842 24.86 -5.5 22 87 -7.3 18.8
21:05 1013 29.91 842 24.86 -5.6 21.8 87 -7.5 18.5
21:10 1013 29.91 842 24.86 -5.8 21.5 87 -7.6 18.3
21:15 1013 29.91 842 24.86 -6 21.3 87 -7.8 18
21:20 1013 29.91 843 24.89 -6 21.2 86 -8 17.7
21:25 1013 29.91 843 24.89 -6.2 20.9 87 -8.1 17.5
21:30 1013 29.91 843 24.89 -6.3 20.7 87 -8.1 17.5
21:35 1014 29.94 843 24.89 -6.3 20.7 87 -8.1 17.4
21:40 1014 29.94 843 24.89 -6.4 20.5 86 -8.3 17.1
21:45 1014 29.94 843 24.89 -6.5 20.4 88 -8.2 17.2
21:50 1014 29.94 843 24.89 -6.5 20.3 88 -8.2 17.2
21:55 1014 29.94 843 24.89 -6.6 20.2 87 -8.4 16.9
22:00 1014 29.94 843 24.89 -6.7 19.9 87 -8.5 16.7
22:05 1014 29.94 843 24.89 -6.8 19.8 88 -8.4 16.8
22:10 1014 29.94 843 24.89 -6.8 19.7 87 -8.6 16.5
22:15 1014 29.94 843 24.89 -6.9 19.6 87 -8.7 16.4
22:20 1014 29.94 843 24.89 -6.9 19.5 87 -8.8 16.2
22:25 1014 29.94 843 24.89 -6.9 19.5 87 -8.7 16.3
22:30 1014 29.94 843 24.89 -7 19.5 88 -8.7 16.4
22:35 1014 29.94 843 24.89 -7 19.5 87 -8.8 16.2
22:40 1014 29.94 843 24.89 -7.1 19.3 87 -8.8 16.1
22:45 1014 29.94 844 24.92 -7 19.3 87 -8.9 16
22:50 1014 29.94 844 24.92 -7.1 19.3 86 -9 15.8
22:55 1015 29.97 844 24.92 -7.2 19.1 86 -9.1 15.6
23:00 1015 29.97 844 24.92 -7.2 19.1 87 -9 15.9
23:05 1015 29.97 844 24.92 -7.2 19 88 -8.9 15.9
23:10 1015 29.97 844 24.92 -7.2 19 87 -9 15.9
23:15 1015 29.97 844 24.92 -7.3 18.9 87 -9.1 15.6
23:20 1015 29.97 844 24.92 -7.4 18.8 87 -9.1 15.6
23:25 1015 29.97 844 24.92 -7.4 18.7 87 -9.3 15.3
23:30 1015 29.97 844 24.92 -7.5 18.6 87 -9.3 15.3
23:35 1015 29.97 844 24.92 -7.5 18.5 87 -9.3 15.2
23:40 1015 29.97 844 24.92 -7.5 18.6 87 -9.3 15.3
23:45 1015 29.97 844 24.92 -7.5 18.5 86 -9.5 14.9
23:50 1015 29.97 844 24.92 -7.6 18.4 86 -9.5 15
23:55 1015 29.97 844 24.92 -7.6 18.3 87 -9.4 15
24:00 1015 29.97 844 24.92 -7.6 18.4 87 -9.4 15.2